Time;durP1;ratioP1;P1;durP2;ratioP2;P2;SDS_P1;SDS_P2;PMS_P1;PMS_P2;Temp;Humidity;BMP_temperature;BMP_pressure;BME280_temperature;BME280_humidity;BME280_pressure;Samples;Min_cycle;Max_cycle;Signal;HPM_P1;HPM_P2
2023/07/29 00:00:01;;;;;;;0.40;0.20;;;;;;;20.17;100.00;99622.00;5025580;28;20480;-52
2023/07/29 00:02:30;;;;;;;0.40;0.20;;;;;;;20.08;100.00;99614.63;5026244;28;20448;-52
2023/07/29 00:04:57;;;;;;;0.40;0.20;;;;;;;20.10;100.00;99612.66;5032036;28;20551;-52
2023/07/29 00:07:23;;;;;;;0.40;0.20;;;;;;;20.10;100.00;99605.44;5030083;28;20484;-53
2023/07/29 00:09:50;;;;;;;0.40;0.20;;;;;;;20.05;100.00;99596.84;5020112;28;20422;-52
2023/07/29 00:12:16;;;;;;;0.40;0.20;;;;;;;20.13;100.00;99612.41;5032141;28;20570;-52
2023/07/29 00:14:43;;;;;;;0.40;0.20;;;;;;;20.15;100.00;99602.38;5032206;28;20517;-52
2023/07/29 00:17:09;;;;;;;0.40;0.20;;;;;;;20.13;100.00;99601.63;5031654;28;20999;-53
2023/07/29 00:19:35;;;;;;;0.40;0.20;;;;;;;20.01;100.00;99600.78;5031911;28;20543;-52
2023/07/29 00:22:04;;;;;;;0.40;0.20;;;;;;;19.94;100.00;99596.81;5031781;28;20530;-52
2023/07/29 00:24:30;;;;;;;0.40;0.20;;;;;;;20.04;100.00;99597.81;5031905;28;20514;-53
2023/07/29 00:26:57;;;;;;;0.40;0.20;;;;;;;19.98;100.00;99597.44;5031891;28;20468;-52
2023/07/29 00:29:23;;;;;;;0.40;0.20;;;;;;;19.96;100.00;99588.59;5032167;28;20504;-52
2023/07/29 00:31:49;;;;;;;0.40;0.20;;;;;;;19.97;100.00;99591.19;5031189;28;20987;-52
2023/07/29 00:34:19;;;;;;;0.40;0.20;;;;;;;20.03;100.00;99589.84;5034328;28;20422;-53
2023/07/29 00:36:46;;;;;;;0.40;0.20;;;;;;;20.13;100.00;99588.13;5017373;28;20534;-53
2023/07/29 00:39:12;;;;;;;0.40;0.20;;;;;;;20.12;100.00;99589.97;5035421;28;20511;-53
2023/07/29 00:41:40;;;;;;;0.40;0.20;;;;;;;20.13;100.00;99585.44;5035506;28;20451;-52
2023/07/29 00:44:06;;;;;;;0.40;0.20;;;;;;;20.16;100.00;99582.50;5035639;28;20444;-52
2023/07/29 00:46:35;;;;;;;0.40;0.20;;;;;;;20.05;100.00;99577.97;5035148;28;21003;-53
2023/07/29 00:49:02;;;;;;;0.40;0.20;;;;;;;20.03;100.00;99555.63;5035353;28;20864;-52
2023/07/29 00:51:29;;;;;;;0.40;0.20;;;;;;;20.01;100.00;99551.31;5035119;28;20526;-53
2023/07/29 00:53:55;;;;;;;0.40;0.30;;;;;;;20.00;100.00;99549.59;5035337;28;20537;-52
2023/07/29 00:56:22;;;;;;;0.40;0.20;;;;;;;19.87;100.00;99546.16;5035246;28;20550;-52
2023/07/29 00:58:49;;;;;;;0.40;0.20;;;;;;;19.96;100.00;99545.44;5035399;28;20434;-53
2023/07/29 01:01:16;;;;;;;0.40;0.20;;;;;;;19.96;100.00;99548.13;5033706;28;20452;-52
2023/07/29 01:03:45;;;;;;;0.40;0.20;;;;;;;19.97;100.00;99552.56;5035045;28;20476;-52
2023/07/29 01:06:37;;;;;;;0.40;0.20;;;;;;;20.00;100.00;99555.00;5034664;28;20475;-52
2023/07/29 01:09:28;;;;;;;0.40;0.20;;;;;;;19.91;100.00;99553.91;5035181;28;20469;-52
2023/07/29 01:12:17;;;;;;;0.40;0.30;;;;;;;19.96;100.00;99559.78;5034834;28;20774;-52
2023/07/29 01:15:16;;;;;;;0.40;0.20;;;;;;;19.85;100.00;99554.38;5035210;28;20509;-53
2023/07/29 01:17:54;;;;;;;0.40;0.20;;;;;;;19.88;100.00;99558.69;5034661;28;20472;-52
2023/07/29 01:20:23;;;;;;;0.40;0.20;;;;;;;19.87;100.00;99552.41;5034763;28;20443;-53
2023/07/29 01:22:50;;;;;;;0.40;0.20;;;;;;;19.97;100.00;99555.25;5034419;28;20443;-52
2023/07/29 01:25:16;;;;;;;0.40;0.20;;;;;;;20.08;100.00;99552.56;5034546;28;20904;-52
2023/07/29 01:27:45;;;;;;;0.40;0.20;;;;;;;20.06;100.00;99551.84;5034645;28;20450;-53
2023/07/29 01:30:12;;;;;;;0.40;0.20;;;;;;;20.11;100.00;99550.47;5026457;28;20482;-55
2023/07/29 01:32:58;;;;;;;0.40;0.20;;;;;;;19.93;100.00;99551.94;5009074;28;20462;-52
2023/07/29 01:35:37;;;;;;;0.40;0.20;;;;;;;20.02;100.00;99548.53;5025235;28;20435;-53
2023/07/29 01:38:12;;;;;;;0.40;0.20;;;;;;;20.11;100.00;99549.63;5019032;28;20423;-52
2023/07/29 01:40:40;;;;;;;0.40;0.20;;;;;;;20.03;100.00;99549.38;5033838;28;20542;-52
2023/07/29 01:43:08;;;;;;;0.40;0.20;;;;;;;20.18;100.00;99550.00;5034526;28;20446;-52
2023/07/29 01:45:37;;;;;;;0.40;0.20;;;;;;;20.17;100.00;99557.25;5034064;28;20454;-53
2023/07/29 01:48:07;;;;;;;0.40;0.20;;;;;;;20.20;100.00;99561.53;5034303;28;20525;-53
2023/07/29 01:50:34;;;;;;;0.40;0.20;;;;;;;20.10;100.00;99567.66;5034095;28;20454;-53
2023/07/29 01:53:01;;;;;;;0.40;0.20;;;;;;;19.90;100.00;99568.38;5034093;28;21058;-53
2023/07/29 01:55:27;;;;;;;0.40;0.20;;;;;;;19.94;100.00;99567.16;5033928;28;20897;-53
2023/07/29 01:57:53;;;;;;;0.40;0.20;;;;;;;19.82;100.00;99551.94;5032297;28;20543;-55
2023/07/29 02:00:20;;;;;;;0.40;0.20;;;;;;;19.78;100.00;99543.22;5018128;28;20862;-53
2023/07/29 02:02:47;;;;;;;0.40;0.20;;;;;;;19.65;100.00;99545.16;5015303;28;20507;-52
2023/07/29 02:05:14;;;;;;;0.40;0.20;;;;;;;19.49;100.00;99532.00;5033975;28;20464;-53
2023/07/29 02:07:40;;;;;;;0.40;0.20;;;;;;;19.60;100.00;99533.88;5034015;28;20513;-53
2023/07/29 02:10:07;;;;;;;0.40;0.20;;;;;;;19.66;100.00;99541.47;5033969;28;20534;-52
2023/07/29 02:12:34;;;;;;;0.40;0.20;;;;;;;19.92;100.00;99535.88;5033540;28;20490;-52
2023/07/29 02:15:00;;;;;;;0.40;0.20;;;;;;;20.02;100.00;99531.47;5033519;28;20480;-52
2023/07/29 02:17:27;;;;;;;0.40;0.20;;;;;;;19.95;100.00;99532.94;5033407;28;20495;-52
2023/07/29 02:19:53;;;;;;;0.40;0.20;;;;;;;20.01;100.00;99521.63;5033764;28;20422;-52
2023/07/29 02:22:20;;;;;;;0.40;0.20;;;;;;;20.03;100.00;99517.00;5033608;28;20510;-52
2023/07/29 02:24:46;;;;;;;0.40;0.20;;;;;;;20.00;100.00;99514.53;5033553;28;20450;-51
2023/07/29 02:27:13;;;;;;;0.40;0.20;;;;;;;19.96;100.00;99502.28;5033292;28;20456;-53
2023/07/29 02:29:39;;;;;;;0.40;0.20;;;;;;;19.99;100.00;99508.28;5027589;28;21027;-53
2023/07/29 02:32:06;;;;;;;0.40;0.20;;;;;;;20.01;100.00;99509.03;5033225;28;20518;-52
2023/07/29 02:34:32;;;;;;;0.40;0.20;;;;;;;19.97;100.00;99504.00;5031289;28;20964;-53
2023/07/29 02:36:59;;;;;;;0.40;0.20;;;;;;;19.96;100.00;99495.03;5016288;28;20450;-53
2023/07/29 02:39:25;;;;;;;0.40;0.30;;;;;;;20.05;100.00;99490.75;5033396;28;20531;-52
2023/07/29 02:41:52;;;;;;;0.40;0.20;;;;;;;20.10;100.00;99496.63;5033068;28;20500;-53
2023/07/29 02:44:19;;;;;;;0.40;0.20;;;;;;;20.01;100.00;99494.66;5024135;28;20502;-53
2023/07/29 02:46:46;;;;;;;0.40;0.20;;;;;;;19.95;100.00;99498.72;5029487;28;20551;-53
2023/07/29 02:49:12;;;;;;;0.40;0.20;;;;;;;19.95;100.00;99501.41;5033235;28;20538;-52
2023/07/29 02:51:39;;;;;;;0.40;0.20;;;;;;;19.92;100.00;99498.97;5032294;28;20426;-53
2023/07/29 02:54:05;;;;;;;0.40;0.20;;;;;;;19.82;100.00;99504.22;5032996;28;20549;-52
2023/07/29 02:56:32;;;;;;;0.40;0.20;;;;;;;19.73;100.00;99498.69;5032580;28;20521;-53
2023/07/29 02:58:59;;;;;;;0.40;0.20;;;;;;;19.75;100.00;99504.84;5023813;28;20949;-52
2023/07/29 03:01:26;;;;;;;0.40;0.20;;;;;;;19.65;100.00;99507.41;5030086;28;20459;-53
2023/07/29 03:03:52;;;;;;;0.40;0.20;;;;;;;19.64;100.00;99502.13;5032951;28;20444;-52
2023/07/29 03:06:19;;;;;;;0.40;0.30;;;;;;;19.44;100.00;99499.13;5032644;28;20529;-53
2023/07/29 03:08:45;;;;;;;0.40;0.20;;;;;;;19.58;100.00;99497.22;5032862;28;20513;-53
2023/07/29 03:11:14;;;;;;;0.40;0.20;;;;;;;19.59;100.00;99497.09;5032594;28;20510;-52
2023/07/29 03:13:41;;;;;;;0.40;0.20;;;;;;;19.68;100.00;99498.22;5032775;28;20575;-53
2023/07/29 03:16:10;;;;;;;0.40;0.20;;;;;;;19.76;100.00;99504.72;5033236;28;20458;-55
2023/07/29 03:18:37;;;;;;;0.40;0.20;;;;;;;19.67;100.00;99502.75;5031468;28;20433;-55
2023/07/29 03:21:03;;;;;;;0.40;0.20;;;;;;;19.65;100.00;99495.78;5032482;28;20539;-55
2023/07/29 03:23:31;;;;;;;0.40;0.20;;;;;;;19.69;100.00;99495.41;5032438;28;20507;-61
2023/07/29 03:25:59;;;;;;;0.40;0.20;;;;;;;19.67;100.00;99491.09;5032525;28;20467;-55
2023/07/29 03:28:32;;;;;;;0.40;0.20;;;;;;;19.59;100.00;99490.84;5028113;28;20449;-55
2023/07/29 03:30:58;;;;;;;0.40;0.20;;;;;;;19.43;100.00;99483.91;5006647;28;20961;-55
2023/07/29 03:33:26;;;;;;;0.40;0.20;;;;;;;19.38;100.00;99469.09;5030820;28;20462;-55
2023/07/29 03:35:52;;;;;;;0.40;0.20;;;;;;;19.37;100.00;99468.25;5020618;28;20878;-55
2023/07/29 03:38:19;;;;;;;0.40;0.20;;;;;;;19.31;100.00;99476.78;5025821;28;20538;-55
2023/07/29 03:40:46;;;;;;;0.40;0.20;;;;;;;19.24;100.00;99471.03;5032418;28;20433;-55
2023/07/29 03:43:12;;;;;;;0.40;0.20;;;;;;;19.20;100.00;99471.41;5031156;28;20447;-55
2023/07/29 03:45:40;;;;;;;0.40;0.20;;;;;;;19.23;100.00;99463.94;5032273;28;20515;-55
2023/07/29 03:48:06;;;;;;;0.40;0.20;;;;;;;19.12;100.00;99461.19;5032117;28;20451;-55
2023/07/29 03:50:35;;;;;;;0.40;0.20;;;;;;;19.11;100.00;99467.56;5032106;28;20456;-55
2023/07/29 03:53:02;;;;;;;0.40;0.20;;;;;;;19.16;100.00;99476.13;5031955;28;20522;-55
2023/07/29 03:55:29;;;;;;;0.40;0.20;;;;;;;19.19;100.00;99465.16;5032216;28;20569;-55
2023/07/29 03:57:57;;;;;;;0.40;0.20;;;;;;;19.18;100.00;99466.09;5031859;28;20453;-55
2023/07/29 04:00:24;;;;;;;0.40;0.20;;;;;;;19.17;100.00;99467.06;5020757;28;20426;-55
2023/07/29 04:02:51;;;;;;;0.40;0.20;;;;;;;19.10;100.00;99465.00;5032668;28;20487;-55
2023/07/29 04:05:17;;;;;;;0.40;0.20;;;;;;;19.16;100.00;99459.97;5036445;28;20841;-55
2023/07/29 04:07:44;;;;;;;0.40;0.20;;;;;;;19.12;100.00;99458.50;5035815;28;20443;-55
2023/07/29 04:10:11;;;;;;;0.40;0.20;;;;;;;19.24;100.00;99454.00;5036264;28;20550;-55
2023/07/29 04:12:37;;;;;;;0.40;0.20;;;;;;;19.10;100.00;99460.47;5036250;28;20455;-55
2023/07/29 04:15:04;;;;;;;0.40;0.20;;;;;;;18.93;100.00;99463.59;5035891;28;20559;-55
2023/07/29 04:17:31;;;;;;;0.40;0.20;;;;;;;19.00;100.00;99451.38;5035689;28;20538;-55
2023/07/29 04:19:57;;;;;;;0.40;0.20;;;;;;;19.19;100.00;99467.00;5034650;28;20426;-55
2023/07/29 04:22:24;;;;;;;0.40;0.20;;;;;;;18.84;100.00;99473.22;5035807;28;20527;-55
2023/07/29 04:24:50;;;;;;;0.40;0.20;;;;;;;18.99;100.00;99478.41;5035950;28;20426;-55
2023/07/29 04:27:17;;;;;;;0.40;0.20;;;;;;;19.09;100.00;99474.91;5035832;28;20435;-55
2023/07/29 04:29:43;;;;;;;0.40;0.20;;;;;;;19.18;100.00;99476.88;5030449;28;20513;-55
2023/07/29 04:32:10;;;;;;;0.40;0.30;;;;;;;19.30;100.00;99469.69;5030895;28;20492;-55
2023/07/29 04:34:36;;;;;;;0.40;0.20;;;;;;;19.37;100.00;99478.16;5016610;28;20459;-55
2023/07/29 04:37:03;;;;;;;0.40;0.20;;;;;;;19.48;100.00;99486.28;5019745;28;20563;-55
2023/07/29 04:39:29;;;;;;;0.40;0.20;;;;;;;19.43;100.00;99480.38;5035749;28;20516;-55
2023/07/29 04:41:57;;;;;;;0.40;0.20;;;;;;;19.48;100.00;99480.88;5035605;28;20897;-55
2023/07/29 04:44:23;;;;;;;0.40;0.20;;;;;;;19.52;100.00;99474.28;5035443;28;20422;-55
2023/07/29 04:46:50;;;;;;;0.40;0.20;;;;;;;19.50;100.00;99466.31;5035049;28;20537;-55
2023/07/29 04:49:16;;;;;;;0.40;0.20;;;;;;;19.54;100.00;99469.59;5035280;28;20950;-55
2023/07/29 04:51:43;;;;;;;0.40;0.20;;;;;;;19.59;100.00;99463.88;5035431;28;20454;-55
2023/07/29 04:54:09;;;;;;;0.40;0.20;;;;;;;19.63;100.00;99476.16;5035036;28;20945;-55
2023/07/29 04:56:36;;;;;;;0.40;0.20;;;;;;;19.49;100.00;99477.22;5034883;28;20514;-55
2023/07/29 04:59:02;;;;;;;0.40;0.20;;;;;;;19.55;100.00;99478.59;5025540;28;20515;-55
2023/07/29 05:01:29;;;;;;;0.40;0.20;;;;;;;19.44;100.00;99482.09;5031713;28;20661;-55
2023/07/29 05:03:55;;;;;;;0.40;0.20;;;;;;;19.56;100.00;99475.75;5035293;28;20437;-55
2023/07/29 05:06:22;;;;;;;0.40;0.20;;;;;;;19.63;100.00;99478.84;5034884;28;20947;-55
2023/07/29 05:08:48;;;;;;;0.40;0.27;;;;;;;19.85;100.00;99478.00;5035182;28;20866;-55
2023/07/29 05:11:15;;;;;;;0.40;0.20;;;;;;;19.92;100.00;99473.84;5034946;28;20513;-56
2023/07/29 05:13:43;;;;;;;0.40;0.20;;;;;;;19.91;100.00;99480.22;5034843;28;20580;-56
2023/07/29 05:16:10;;;;;;;0.40;0.20;;;;;;;20.06;100.00;99477.13;5033827;28;20479;-56
2023/07/29 05:18:36;;;;;;;0.40;0.20;;;;;;;20.04;100.00;99479.09;5035005;28;20451;-56
2023/07/29 05:21:03;;;;;;;0.40;0.20;;;;;;;20.02;100.00;99478.38;5034747;28;20940;-56
2023/07/29 05:23:29;;;;;;;0.40;0.20;;;;;;;20.08;100.00;99479.72;5034737;28;20951;-56
2023/07/29 05:25:56;;;;;;;1.70;1.60;;;;;;;20.15;100.00;99497.13;5033299;28;20955;-56
2023/07/29 05:28:22;;;;;;;0.40;0.20;;;;;;;20.12;100.00;99491.97;5030531;28;20492;-56
2023/07/29 05:30:49;;;;;;;0.57;0.57;;;;;;;19.98;100.00;99497.59;5032028;28;20458;-56
2023/07/29 05:33:15;;;;;;;0.40;0.20;;;;;;;19.99;100.00;99502.03;5034225;28;20546;-56
2023/07/29 05:35:42;;;;;;;0.40;0.20;;;;;;;19.53;100.00;99500.25;5022048;28;20475;-56
2023/07/29 05:38:09;;;;;;;0.40;0.20;;;;;;;19.39;100.00;99493.22;5026720;28;20946;-56
2023/07/29 05:40:36;;;;;;;0.40;0.20;;;;;;;19.21;100.00;99500.06;5034230;28;20510;-56
2023/07/29 05:43:03;;;;;;;0.40;0.20;;;;;;;19.40;100.00;99507.56;5034213;28;20426;-56
2023/07/29 05:45:30;;;;;;;0.40;0.20;;;;;;;19.55;100.00;99495.63;5034181;28;20551;-56
2023/07/29 05:47:57;;;;;;;0.40;0.20;;;;;;;19.32;100.00;99501.91;5034305;28;21039;-56
2023/07/29 05:50:23;;;;;;;0.40;0.20;;;;;;;19.37;100.00;99497.91;5034362;28;20438;-56
2023/07/29 05:52:50;;;;;;;0.40;0.20;;;;;;;19.30;100.00;99501.16;5034215;28;20426;-56
2023/07/29 05:55:16;;;;;;;0.40;0.20;;;;;;;19.58;100.00;99521.47;5033777;28;20544;-56
2023/07/29 05:57:43;;;;;;;0.40;0.20;;;;;;;19.73;100.00;99522.97;5034003;28;20456;-56
2023/07/29 06:00:10;;;;;;;0.40;0.20;;;;;;;19.77;100.00;99509.16;5020007;28;20452;-56
2023/07/29 06:02:37;;;;;;;0.40;0.20;;;;;;;19.80;100.00;99502.63;5034063;28;20513;-56
2023/07/29 06:05:04;;;;;;;0.40;0.20;;;;;;;19.85;100.00;99500.44;5033994;28;20514;-56
2023/07/29 06:07:32;;;;;;;0.40;0.20;;;;;;;19.52;100.00;99472.44;5033768;28;20430;-56
2023/07/29 06:09:58;;;;;;;0.40;0.20;;;;;;;19.36;100.00;99466.53;5033848;28;20957;-56
2023/07/29 06:12:25;;;;;;;0.40;0.20;;;;;;;19.45;100.00;99465.78;5033690;28;20430;-56
2023/07/29 06:14:52;;;;;;;0.40;0.20;;;;;;;19.62;100.00;99464.50;5033644;28;20500;-56
2023/07/29 06:17:18;;;;;;;0.50;0.40;;;;;;;19.56;100.00;99467.69;5033521;28;20543;-56
2023/07/29 06:19:45;;;;;;;0.40;0.20;;;;;;;19.58;100.00;99483.72;5033713;28;20454;-56
2023/07/29 06:22:11;;;;;;;0.40;0.20;;;;;;;19.85;100.00;99510.34;5033615;28;20426;-56
2023/07/29 06:24:38;;;;;;;0.70;0.70;;;;;;;19.98;100.00;99517.34;5033478;28;20454;-56
2023/07/29 06:27:04;;;;;;;0.40;0.20;;;;;;;19.91;100.00;99512.59;5032272;28;20450;-56
2023/07/29 06:29:31;;;;;;;0.40;0.20;;;;;;;20.04;100.00;99507.94;5027099;28;20527;-56
2023/07/29 06:31:58;;;;;;;0.40;0.20;;;;;;;20.15;100.00;99507.94;5033415;28;20514;-56
2023/07/29 06:34:24;;;;;;;0.40;0.20;;;;;;;19.80;100.00;99468.44;5023765;28;20458;-55
2023/07/29 06:36:52;;;;;;;0.40;0.30;;;;;;;19.56;100.00;99429.94;5014999;28;20515;-54
2023/07/29 06:39:18;;;;;;;0.40;0.20;;;;;;;19.55;100.00;99432.75;5033290;28;20430;-55
2023/07/29 06:41:45;;;;;;;0.40;0.20;;;;;;;19.93;100.00;99475.56;5032928;28;20922;-55
2023/07/29 06:44:11;;;;;;;0.40;0.20;;;;;;;20.37;100.00;99517.81;5033166;28;20544;-55
2023/07/29 06:46:38;;;;;;;0.40;0.20;;;;;;;20.19;100.00;99536.38;5032819;28;20971;-55
2023/07/29 06:49:11;;;;;;;0.40;0.30;;;;;;;20.11;100.00;99536.13;5089947;27;20606;-56
2023/07/29 06:51:38;;;;;;;0.40;0.20;;;;;;;20.11;100.00;99518.09;5089704;28;20535;-56
2023/07/29 06:54:04;;;;;;;0.40;0.20;;;;;;;20.22;100.00;99529.88;5089602;28;20869;-56
2023/07/29 06:56:31;;;;;;;0.40;0.20;;;;;;;20.46;100.00;99530.63;5075428;28;20560;-56
2023/07/29 06:58:57;;;;;;;0.40;0.20;;;;;;;20.48;100.00;99533.19;5075790;28;20458;-53
2023/07/29 07:01:23;;;;;;;0.40;0.20;;;;;;;20.36;100.00;99518.81;5079221;28;20465;-54
2023/07/29 07:03:50;;;;;;;0.40;0.20;;;;;;;20.46;100.00;99530.63;5076245;28;20962;-53
2023/07/29 07:06:16;;;;;;;0.40;0.20;;;;;;;20.51;100.00;99539.19;5073138;28;20469;-51
2023/07/29 07:08:44;;;;;;;0.93;0.93;;;;;;;20.61;100.00;99540.16;5068873;28;20496;-52
2023/07/29 07:11:10;;;;;;;0.40;0.20;;;;;;;20.72;100.00;99539.28;5066296;28;20458;-55
2023/07/29 07:13:36;;;;;;;0.40;0.20;;;;;;;20.70;100.00;99554.75;5064333;28;20449;-53
2023/07/29 07:16:03;;;;;;;0.40;0.30;;;;;;;20.78;100.00;99538.75;5075934;28;20577;-52
2023/07/29 07:18:30;;;;;;;0.40;0.20;;;;;;;20.81;100.00;99535.78;5061121;28;20451;-52
2023/07/29 07:20:56;;;;;;;0.40;0.20;;;;;;;20.83;100.00;99530.25;5066207;28;20980;-54
2023/07/29 07:23:23;;;;;;;0.40;0.20;;;;;;;21.06;100.00;99534.63;5058870;28;20541;-52
2023/07/29 07:25:49;;;;;;;0.40;0.20;;;;;;;21.13;100.00;99526.88;5080212;28;20561;-55
2023/07/29 07:28:16;;;;;;;0.40;0.20;;;;;;;21.10;100.00;99548.72;5074035;28;20509;-52
2023/07/29 07:30:42;;;;;;;0.40;0.20;;;;;;;21.42;100.00;99548.75;5060460;28;20428;-53
2023/07/29 07:33:09;;;;;;;0.40;0.20;;;;;;;21.48;100.00;99548.22;5077168;28;20453;-52
2023/07/29 07:35:36;;;;;;;0.40;0.30;;;;;;;21.49;100.00;99558.03;5076628;28;20474;-54
2023/07/29 07:38:03;;;;;;;0.40;0.20;;;;;;;21.64;100.00;99556.72;5072128;28;20539;-52
2023/07/29 07:40:31;;;;;;;0.40;0.20;;;;;;;21.98;100.00;99559.22;5065163;28;20465;-52
2023/07/29 07:42:57;;;;;;;0.40;0.20;;;;;;;22.16;100.00;99565.75;5060989;28;20541;-52
2023/07/29 07:45:24;;;;;;;0.40;0.20;;;;;;;22.12;100.00;99557.03;5063586;28;20572;-53
2023/07/29 07:47:53;;;;;;;0.40;0.20;;;;;;;22.42;100.00;99548.03;5060727;28;20984;-52
2023/07/29 07:50:20;;;;;;;0.40;0.23;;;;;;;22.41;100.00;99549.03;5054721;28;20511;-53
2023/07/29 07:52:47;;;;;;;0.40;0.20;;;;;;;22.60;100.00;99559.06;5068375;28;21032;-52
2023/07/29 07:55:13;;;;;;;0.40;0.20;;;;;;;22.67;100.00;99567.50;5057408;28;20941;-53
2023/07/29 07:57:40;;;;;;;0.70;0.70;;;;;;;22.60;100.00;99560.91;5060960;28;20537;-52
2023/07/29 08:00:06;;;;;;;0.40;0.20;;;;;;;22.59;100.00;99560.06;5050807;28;20517;-52
2023/07/29 08:02:33;;;;;;;0.40;0.20;;;;;;;22.90;100.00;99558.19;5047857;28;20458;-52
2023/07/29 08:05:00;;;;;;;0.40;0.20;;;;;;;22.95;100.00;99558.63;5062399;28;21011;-52
2023/07/29 08:07:26;;;;;;;0.40;0.20;;;;;;;22.99;100.00;99553.75;5051945;28;20849;-52
2023/07/29 08:09:53;;;;;;;0.47;0.20;;;;;;;22.62;100.00;99558.94;5041485;28;20458;-52
2023/07/29 08:12:19;;;;;;;0.50;0.30;;;;;;;23.20;100.00;99557.22;5041414;28;20988;-53
2023/07/29 08:14:45;;;;;;;0.40;0.20;;;;;;;23.05;100.00;99567.63;5054241;28;20457;-52
2023/07/29 08:17:12;;;;;;;0.40;0.20;;;;;;;23.17;100.00;99559.34;5041237;28;20937;-52
2023/07/29 08:19:38;;;;;;;0.40;0.30;;;;;;;23.64;100.00;99547.63;5054274;28;20458;-52
2023/07/29 08:22:05;;;;;;;0.50;0.20;;;;;;;23.99;97.16;99553.44;5062659;28;20871;-52
2023/07/29 08:24:32;;;;;;;0.50;0.20;;;;;;;23.87;97.06;99553.59;5033253;28;20597;-54
2023/07/29 08:26:58;;;;;;;0.40;0.20;;;;;;;23.96;99.74;99553.72;5059102;28;20498;-53
2023/07/29 08:29:25;;;;;;;0.40;0.20;;;;;;;24.12;97.34;99559.38;5040224;28;20598;-53
2023/07/29 08:31:51;;;;;;;0.50;0.30;;;;;;;24.07;99.81;99559.81;5047504;28;20482;-54
2023/07/29 08:34:18;;;;;;;0.50;0.30;;;;;;;23.84;98.00;99555.72;5054150;28;20447;-54
2023/07/29 08:36:45;;;;;;;0.50;0.20;;;;;;;23.91;97.97;99548.72;5054129;28;20474;-53
2023/07/29 08:39:11;;;;;;;0.50;0.30;;;;;;;23.76;98.31;99552.91;5054205;28;20809;-53
2023/07/29 08:41:49;;;;;;;0.50;0.20;;;;;;;23.77;98.04;99547.34;5057464;28;20479;-53
2023/07/29 08:44:23;;;;;;;0.50;0.30;;;;;;;23.71;97.44;99552.47;5043711;28;20439;-53
2023/07/29 08:46:50;;;;;;;0.40;0.20;;;;;;;24.06;99.48;99555.41;5051402;28;20500;-53
2023/07/29 08:49:23;;;;;;;0.50;0.27;;;;;;;23.94;97.51;99556.56;5044655;28;20490;-53
2023/07/29 08:51:50;;;;;;;0.50;0.30;;;;;;;23.80;97.89;99557.03;5048412;28;20443;-53
2023/07/29 08:54:17;;;;;;;0.40;0.20;;;;;;;23.71;97.97;99556.06;5058320;28;20546;-54
2023/07/29 08:56:44;;;;;;;1.63;1.63;;;;;;;23.81;98.55;99554.16;5049140;28;20576;-53
2023/07/29 08:59:11;;;;;;;0.43;0.20;;;;;;;23.92;96.28;99561.28;5045539;28;20537;-54
2023/07/29 09:01:41;;;;;;;0.40;0.20;;;;;;;24.07;98.35;99550.81;5040638;28;20545;-54
2023/07/29 09:04:08;;;;;;;0.50;0.20;;;;;;;23.76;96.15;99553.75;5041316;28;20546;-53
2023/07/29 09:06:35;;;;;;;0.43;0.20;;;;;;;24.23;96.70;99570.06;5052773;28;20474;-53
2023/07/29 09:09:05;;;;;;;0.40;0.20;;;;;;;24.26;96.06;99564.34;5058288;28;20490;-53
2023/07/29 09:11:33;;;;;;;0.50;0.20;;;;;;;24.83;96.51;99562.38;5046261;28;20452;-54
2023/07/29 09:13:59;;;;;;;0.40;0.20;;;;;;;24.97;94.28;99566.44;5047406;28;20455;-55
2023/07/29 09:16:26;;;;;;;0.40;0.20;;;;;;;25.07;94.25;99564.50;5052614;28;20471;-54
2023/07/29 09:18:53;;;;;;;0.47;0.30;;;;;;;25.16;92.38;99560.88;5052270;28;20492;-54
2023/07/29 09:21:28;;;;;;;0.43;0.20;;;;;;;25.48;90.69;99559.44;5055390;28;20545;-54
2023/07/29 09:23:55;;;;;;;0.40;0.20;;;;;;;25.26;91.81;99556.22;5052459;28;20537;-54
2023/07/29 09:26:26;;;;;;;0.40;0.20;;;;;;;25.84;89.95;99552.13;5041885;28;20546;-54
2023/07/29 09:28:57;;;;;;;0.50;0.20;;;;;;;25.36;92.56;99548.84;5043605;28;20568;-53
2023/07/29 09:31:26;;;;;;;0.50;0.30;;;;;;;25.34;89.94;99553.56;5035956;28;20447;-54
2023/07/29 09:33:58;;;;;;;0.50;0.20;;;;;;;25.16;91.39;99554.56;5082371;28;20447;-55
2023/07/29 09:36:25;;;;;;;0.50;0.30;;;;;;;25.12;90.69;99543.16;5052019;28;20479;-55
2023/07/29 09:38:53;;;;;;;0.50;0.20;;;;;;;25.61;90.65;99546.28;5047949;28;20456;-54
2023/07/29 09:41:26;;;;;;;0.50;0.20;;;;;;;25.46;93.61;99539.72;5044418;28;20458;-52
2023/07/29 09:43:57;;;;;;;0.50;0.23;;;;;;;25.52;94.35;99534.50;5046457;28;21016;-52
2023/07/29 09:46:26;;;;;;;0.43;0.20;;;;;;;25.29;93.69;99534.13;5046724;28;20529;-52
2023/07/29 09:48:56;;;;;;;0.47;0.23;;;;;;;25.76;93.03;99535.72;5032707;28;20491;-53
2023/07/29 09:51:24;;;;;;;0.50;0.30;;;;;;;25.86;90.22;99537.31;5047271;28;20534;-53
2023/07/29 09:53:52;;;;;;;0.40;0.20;;;;;;;25.84;89.01;99543.94;5044776;28;20996;-52
2023/07/29 09:56:25;;;;;;;0.50;0.20;;;;;;;26.02;87.17;99549.34;5047872;28;20987;-53
2023/07/29 09:58:52;;;;;;;0.50;0.20;;;;;;;26.14;86.79;99546.19;5053212;28;20447;-54
2023/07/29 10:01:20;;;;;;;0.50;0.20;;;;;;;25.99;86.24;99539.63;5052189;28;20468;-53
2023/07/29 10:03:47;;;;;;;0.50;0.30;;;;;;;25.95;87.10;99543.69;5041922;28;20451;-54
2023/07/29 10:06:14;;;;;;;0.50;0.30;;;;;;;26.16;86.86;99537.84;5039458;28;20482;-53
2023/07/29 10:08:43;;;;;;;0.50;0.27;;;;;;;26.43;84.65;99536.81;5042789;28;20491;-54
2023/07/29 10:11:10;;;;;;;0.50;0.30;;;;;;;26.48;83.97;99540.78;5045915;28;20480;-53
2023/07/29 10:13:38;;;;;;;0.50;0.30;;;;;;;26.29;84.78;99539.09;5043591;28;20538;-54
2023/07/29 10:16:05;;;;;;;0.50;0.30;;;;;;;26.34;84.27;99532.34;5049335;28;20467;-53
2023/07/29 10:18:33;;;;;;;0.50;0.30;;;;;;;26.71;82.94;99542.88;5043458;28;20471;-54
2023/07/29 10:21:01;;;;;;;0.50;0.30;;;;;;;26.71;80.89;99534.69;5038878;28;20940;-52
2023/07/29 10:23:34;;;;;;;0.50;0.20;;;;;;;26.82;79.58;99531.66;5040273;28;20487;-53
2023/07/29 10:26:10;;;;;;;0.50;0.20;;;;;;;26.79;80.56;99537.47;5045671;28;20471;-53
2023/07/29 10:28:41;;;;;;;0.50;0.20;;;;;;;26.97;80.22;99532.72;5056199;28;20513;-53
2023/07/29 10:31:07;;;;;;;0.50;0.23;;;;;;;26.69;79.05;99531.28;5040646;28;20816;-53
2023/07/29 10:33:34;;;;;;;0.50;0.30;;;;;;;26.41;81.14;99536.97;5046158;28;20474;-53
2023/07/29 10:36:04;;;;;;;0.50;0.23;;;;;;;26.61;80.67;99528.56;5051966;28;20471;-53
2023/07/29 10:38:31;;;;;;;0.50;0.30;;;;;;;27.00;79.06;99523.34;5050030;28;21066;-53
2023/07/29 10:41:00;;;;;;;0.50;0.20;;;;;;;26.99;77.90;99516.19;5039537;28;20827;-54
2023/07/29 10:43:31;;;;;;;0.50;0.30;;;;;;;26.83;77.02;99515.13;5053466;28;20485;-53
2023/07/29 10:46:15;;;;;;;0.50;0.30;;;;;;;27.23;75.87;99504.47;5042099;28;20549;-53
2023/07/29 10:48:43;;;;;;;0.50;0.30;;;;;;;27.48;74.21;99506.19;5041284;28;20495;-52
2023/07/29 10:51:23;;;;;;;0.50;0.27;;;;;;;27.63;71.14;99503.63;5059432;28;20544;-53
2023/07/29 10:53:56;;;;;;;0.50;0.30;;;;;;;27.80;71.88;99501.75;5034033;28;20509;-52
2023/07/29 10:56:33;;;;;;;0.50;0.30;;;;;;;27.85;66.88;99508.41;5054490;28;20501;-53
2023/07/29 10:59:17;;;;;;;0.50;0.30;;;;;;;28.08;62.20;99527.63;5042935;28;20447;-52
2023/07/29 11:01:52;;;;;;;0.50;0.27;;;;;;;27.97;61.04;99514.38;5045489;28;21014;-53
2023/07/29 11:04:25;;;;;;;0.50;0.30;;;;;;;28.37;60.59;99516.13;5061959;28;20461;-52
2023/07/29 11:07:03;;;;;;;0.50;0.30;;;;;;;27.84;60.36;99517.63;5041588;28;20461;-53
2023/07/29 11:09:54;;;;;;;0.50;0.30;;;;;;;27.83;61.64;99513.19;5047365;28;21090;-52
2023/07/29 11:12:50;;;;;;;0.50;0.23;;;;;;;27.87;58.54;99520.00;5038775;28;20506;-52
2023/07/29 11:15:19;;;;;;;0.50;0.20;;;;;;;27.77;59.13;99513.03;5040921;28;20476;-52
2023/07/29 11:17:51;;;;;;;0.50;0.30;;;;;;;27.62;60.65;99510.97;5050180;28;20458;-53
2023/07/29 11:20:24;;;;;;;0.50;0.23;;;;;;;27.42;60.64;99502.28;5052789;28;20958;-53
2023/07/29 11:22:52;;;;;;;0.50;0.30;;;;;;;27.66;62.46;99506.88;5033133;28;20867;-54
2023/07/29 11:25:19;;;;;;;0.50;0.30;;;;;;;27.93;59.67;99502.91;5056902;28;20503;-54
2023/07/29 11:27:46;;;;;;;0.50;0.30;;;;;;;27.99;57.94;99502.22;5039302;28;20504;-53
2023/07/29 11:30:14;;;;;;;0.50;0.27;;;;;;;28.26;59.47;99509.19;5038163;28;20488;-54